sensor_id;sensor_type;location;lat;lon;timestamp;temperature;humidity
56771;DHT22;42641;59.794;17.616;2024-03-08T00:00:38;-1.20;99.90
56771;DHT22;42641;59.794;17.616;2024-03-08T00:03:06;-1.20;99.90
56771;DHT22;42641;59.794;17.616;2024-03-08T00:05:33;-1.30;99.90
56771;DHT22;42641;59.794;17.616;2024-03-08T00:07:59;-1.30;99.90
56771;DHT22;42641;59.794;17.616;2024-03-08T00:10:26;-1.30;99.90
56771;DHT22;42641;59.794;17.616;2024-03-08T00:12:54;-1.30;99.90
56771;DHT22;42641;59.794;17.616;2024-03-08T00:15:21;-1.30;99.90
56771;DHT22;42641;59.794;17.616;2024-03-08T00:17:49;-1.40;99.90
56771;DHT22;42641;59.794;17.616;2024-03-08T00:20:16;-1.40;99.90
56771;DHT22;42641;59.794;17.616;2024-03-08T00:22:44;-1.40;99.90
56771;DHT22;42641;59.794;17.616;2024-03-08T00:25:10;-1.40;99.90
56771;DHT22;42641;59.794;17.616;2024-03-08T00:27:38;-1.40;99.90
56771;DHT22;42641;59.794;17.616;2024-03-08T00:30:05;-1.50;99.90
56771;DHT22;42641;59.794;17.616;2024-03-08T00:32:31;-1.50;99.90
56771;DHT22;42641;59.794;17.616;2024-03-08T00:34:58;-1.50;99.90
56771;DHT22;42641;59.794;17.616;2024-03-08T00:37:25;-1.50;99.90
56771;DHT22;42641;59.794;17.616;2024-03-08T00:39:51;-1.50;99.90
56771;DHT22;42641;59.794;17.616;2024-03-08T00:42:19;-1.50;99.90
56771;DHT22;42641;59.794;17.616;2024-03-08T00:44:45;-1.50;99.90
56771;DHT22;42641;59.794;17.616;2024-03-08T00:47:12;-1.50;99.90
56771;DHT22;42641;59.794;17.616;2024-03-08T00:49:41;-1.50;99.90
56771;DHT22;42641;59.794;17.616;2024-03-08T00:52:08;-1.50;99.90
56771;DHT22;42641;59.794;17.616;2024-03-08T00:54:35;-1.50;99.90
56771;DHT22;42641;59.794;17.616;2024-03-08T00:57:04;-1.50;99.90
56771;DHT22;42641;59.794;17.616;2024-03-08T00:59:32;-1.60;99.90
56771;DHT22;42641;59.794;17.616;2024-03-08T01:01:59;-1.60;99.90
56771;DHT22;42641;59.794;17.616;2024-03-08T01:04:29;-1.60;99.90
56771;DHT22;42641;59.794;17.616;2024-03-08T01:06:59;-1.70;99.90
56771;DHT22;42641;59.794;17.616;2024-03-08T01:09:26;-1.70;99.90
56771;DHT22;42641;59.794;17.616;2024-03-08T01:11:56;-1.70;99.90
56771;DHT22;42641;59.794;17.616;2024-03-08T01:14:23;-1.70;99.90
56771;DHT22;42641;59.794;17.616;2024-03-08T01:16:51;-1.70;99.90
56771;DHT22;42641;59.794;17.616;2024-03-08T01:19:18;-1.70;99.90
56771;DHT22;42641;59.794;17.616;2024-03-08T01:21:44;-1.70;99.90
56771;DHT22;42641;59.794;17.616;2024-03-08T01:24:12;-1.70;99.90
56771;DHT22;42641;59.794;17.616;2024-03-08T01:26:39;-1.70;99.90
56771;DHT22;42641;59.794;17.616;2024-03-08T01:29:06;-1.70;99.90
56771;DHT22;42641;59.794;17.616;2024-03-08T01:31:33;-1.70;99.90
56771;DHT22;42641;59.794;17.616;2024-03-08T01:34:00;-1.70;99.90
56771;DHT22;42641;59.794;17.616;2024-03-08T01:36:26;-1.70;99.90
56771;DHT22;42641;59.794;17.616;2024-03-08T01:38:52;-1.70;99.90
56771;DHT22;42641;59.794;17.616;2024-03-08T01:41:19;-1.80;99.90
56771;DHT22;42641;59.794;17.616;2024-03-08T01:43:46;-1.90;99.90
56771;DHT22;42641;59.794;17.616;2024-03-08T01:46:19;-1.90;99.90
56771;DHT22;42641;59.794;17.616;2024-03-08T01:48:48;-1.90;99.90
56771;DHT22;42641;59.794;17.616;2024-03-08T01:51:21;-2.00;99.90
56771;DHT22;42641;59.794;17.616;2024-03-08T01:53:48;-2.00;99.90
56771;DHT22;42641;59.794;17.616;2024-03-08T01:56:14;-2.00;99.90
56771;DHT22;42641;59.794;17.616;2024-03-08T01:58:41;-1.90;99.90
56771;DHT22;42641;59.794;17.616;2024-03-08T02:01:13;-2.00;99.90
56771;DHT22;42641;59.794;17.616;2024-03-08T02:03:44;-2.00;99.90
56771;DHT22;42641;59.794;17.616;2024-03-08T02:06:14;-2.00;99.90
56771;DHT22;42641;59.794;17.616;2024-03-08T02:08:43;-2.10;99.90
56771;DHT22;42641;59.794;17.616;2024-03-08T02:11:11;-2.10;99.90
56771;DHT22;42641;59.794;17.616;2024-03-08T02:13:38;-2.10;99.90
56771;DHT22;42641;59.794;17.616;2024-03-08T02:16:06;-2.10;99.90
56771;DHT22;42641;59.794;17.616;2024-03-08T02:18:34;-2.10;99.90
56771;DHT22;42641;59.794;17.616;2024-03-08T02:21:02;-2.10;99.90
56771;DHT22;42641;59.794;17.616;2024-03-08T02:23:29;-2.10;99.90
56771;DHT22;42641;59.794;17.616;2024-03-08T02:25:56;-2.10;99.90
56771;DHT22;42641;59.794;17.616;2024-03-08T02:28:24;-2.10;99.90
56771;DHT22;42641;59.794;17.616;2024-03-08T02:30:51;-2.10;99.90
56771;DHT22;42641;59.794;17.616;2024-03-08T02:33:24;-2.10;99.90
56771;DHT22;42641;59.794;17.616;2024-03-08T02:35:51;-2.10;99.90
56771;DHT22;42641;59.794;17.616;2024-03-08T02:38:20;-2.10;99.90
56771;DHT22;42641;59.794;17.616;2024-03-08T02:40:48;-2.10;99.90
56771;DHT22;42641;59.794;17.616;2024-03-08T02:43:16;-2.10;99.90
56771;DHT22;42641;59.794;17.616;2024-03-08T02:45:45;-2.10;99.90
56771;DHT22;42641;59.794;17.616;2024-03-08T02:48:12;-2.10;99.90
56771;DHT22;42641;59.794;17.616;2024-03-08T02:50:39;-2.10;99.90
56771;DHT22;42641;59.794;17.616;2024-03-08T02:53:06;-2.10;99.90
56771;DHT22;42641;59.794;17.616;2024-03-08T02:55:40;-2.10;99.90
56771;DHT22;42641;59.794;17.616;2024-03-08T02:58:08;-2.10;99.90
56771;DHT22;42641;59.794;17.616;2024-03-08T03:00:40;-2.10;99.90
56771;DHT22;42641;59.794;17.616;2024-03-08T03:03:07;-2.10;99.90
56771;DHT22;42641;59.794;17.616;2024-03-08T03:05:34;-2.20;99.90
56771;DHT22;42641;59.794;17.616;2024-03-08T03:08:00;-2.20;99.90
56771;DHT22;42641;59.794;17.616;2024-03-08T03:10:27;-2.20;99.90
56771;DHT22;42641;59.794;17.616;2024-03-08T03:12:53;-2.20;99.90
56771;DHT22;42641;59.794;17.616;2024-03-08T03:15:20;-2.10;99.90
56771;DHT22;42641;59.794;17.616;2024-03-08T03:17:48;-2.10;99.90
56771;DHT22;42641;59.794;17.616;2024-03-08T03:20:14;-2.10;99.90
56771;DHT22;42641;59.794;17.616;2024-03-08T03:22:49;-2.10;99.90
56771;DHT22;42641;59.794;17.616;2024-03-08T03:25:19;-2.20;99.90
56771;DHT22;42641;59.794;17.616;2024-03-08T03:27:55;-2.20;99.90
56771;DHT22;42641;59.794;17.616;2024-03-08T03:30:24;-2.20;99.90
56771;DHT22;42641;59.794;17.616;2024-03-08T03:32:53;-2.20;99.90
56771;DHT22;42641;59.794;17.616;2024-03-08T03:35:21;-2.20;99.90
56771;DHT22;42641;59.794;17.616;2024-03-08T03:37:48;-2.20;99.90
56771;DHT22;42641;59.794;17.616;2024-03-08T03:40:38;-2.20;99.90
56771;DHT22;42641;59.794;17.616;2024-03-08T03:43:06;-2.30;99.90
56771;DHT22;42641;59.794;17.616;2024-03-08T03:45:32;-2.30;99.90
56771;DHT22;42641;59.794;17.616;2024-03-08T03:48:02;-2.30;99.90
56771;DHT22;42641;59.794;17.616;2024-03-08T03:50:29;-2.30;99.90
56771;DHT22;42641;59.794;17.616;2024-03-08T03:52:56;-2.20;99.90
56771;DHT22;42641;59.794;17.616;2024-03-08T03:55:22;-2.20;99.90
56771;DHT22;42641;59.794;17.616;2024-03-08T03:57:48;-2.20;99.90
56771;DHT22;42641;59.794;17.616;2024-03-08T04:00:15;-2.20;99.90
56771;DHT22;42641;59.794;17.616;2024-03-08T04:02:42;-2.20;99.90
56771;DHT22;42641;59.794;17.616;2024-03-08T04:05:09;-2.20;99.90
56771;DHT22;42641;59.794;17.616;2024-03-08T04:07:37;-2.20;99.90
56771;DHT22;42641;59.794;17.616;2024-03-08T04:10:05;-2.20;99.90
56771;DHT22;42641;59.794;17.616;2024-03-08T04:12:35;-2.30;99.90
56771;DHT22;42641;59.794;17.616;2024-03-08T04:15:05;-2.30;99.90
56771;DHT22;42641;59.794;17.616;2024-03-08T04:17:34;-2.30;99.90
56771;DHT22;42641;59.794;17.616;2024-03-08T04:20:04;-2.30;99.90
56771;DHT22;42641;59.794;17.616;2024-03-08T04:22:36;-2.40;99.90
56771;DHT22;42641;59.794;17.616;2024-03-08T04:25:03;-2.30;99.90
56771;DHT22;42641;59.794;17.616;2024-03-08T04:27:30;-2.40;99.90
56771;DHT22;42641;59.794;17.616;2024-03-08T04:29:56;-2.40;99.90
56771;DHT22;42641;59.794;17.616;2024-03-08T04:32:23;-2.40;99.90
56771;DHT22;42641;59.794;17.616;2024-03-08T04:34:49;-2.40;99.90
56771;DHT22;42641;59.794;17.616;2024-03-08T04:37:15;-2.40;99.90
56771;DHT22;42641;59.794;17.616;2024-03-08T04:39:47;-2.40;99.90
56771;DHT22;42641;59.794;17.616;2024-03-08T04:42:15;-2.40;99.90
56771;DHT22;42641;59.794;17.616;2024-03-08T04:44:42;-2.40;99.90
56771;DHT22;42641;59.794;17.616;2024-03-08T04:47:08;-2.40;99.90
56771;DHT22;42641;59.794;17.616;2024-03-08T04:49:34;-2.40;99.90
56771;DHT22;42641;59.794;17.616;2024-03-08T04:52:02;-2.40;99.90
56771;DHT22;42641;59.794;17.616;2024-03-08T04:54:32;-2.50;99.90
56771;DHT22;42641;59.794;17.616;2024-03-08T04:56:58;-2.50;99.90
56771;DHT22;42641;59.794;17.616;2024-03-08T04:59:28;-2.50;99.90
56771;DHT22;42641;59.794;17.616;2024-03-08T05:01:54;-2.40;99.90
56771;DHT22;42641;59.794;17.616;2024-03-08T05:04:21;-2.50;99.90
56771;DHT22;42641;59.794;17.616;2024-03-08T05:06:47;-2.50;99.90
56771;DHT22;42641;59.794;17.616;2024-03-08T05:09:14;-2.50;99.90
56771;DHT22;42641;59.794;17.616;2024-03-08T05:11:46;-2.50;99.90
56771;DHT22;42641;59.794;17.616;2024-03-08T05:14:14;-2.50;99.90
56771;DHT22;42641;59.794;17.616;2024-03-08T05:16:44;-2.50;99.90
56771;DHT22;42641;59.794;17.616;2024-03-08T05:19:15;-2.50;99.90
56771;DHT22;42641;59.794;17.616;2024-03-08T05:21:48;-2.60;99.90
56771;DHT22;42641;59.794;17.616;2024-03-08T05:24:15;-2.60;99.90
56771;DHT22;42641;59.794;17.616;2024-03-08T05:26:45;-2.50;99.90
56771;DHT22;42641;59.794;17.616;2024-03-08T05:29:11;-2.60;99.90
56771;DHT22;42641;59.794;17.616;2024-03-08T05:31:47;-2.60;99.90
56771;DHT22;42641;59.794;17.616;2024-03-08T05:34:14;-2.60;99.90
56771;DHT22;42641;59.794;17.616;2024-03-08T05:36:41;-2.60;99.90
56771;DHT22;42641;59.794;17.616;2024-03-08T05:39:13;-2.50;99.90
56771;DHT22;42641;59.794;17.616;2024-03-08T05:41:40;-2.50;99.90
56771;DHT22;42641;59.794;17.616;2024-03-08T05:44:07;-2.50;99.90
56771;DHT22;42641;59.794;17.616;2024-03-08T05:46:34;-2.50;99.90
56771;DHT22;42641;59.794;17.616;2024-03-08T05:49:05;-2.40;99.90
56771;DHT22;42641;59.794;17.616;2024-03-08T05:51:33;-2.40;99.90
56771;DHT22;42641;59.794;17.616;2024-03-08T05:54:06;-2.40;99.90
56771;DHT22;42641;59.794;17.616;2024-03-08T05:56:33;-2.30;99.90
56771;DHT22;42641;59.794;17.616;2024-03-08T05:58:59;-2.30;99.90
56771;DHT22;42641;59.794;17.616;2024-03-08T06:01:26;-2.30;99.90
56771;DHT22;42641;59.794;17.616;2024-03-08T06:03:53;-2.30;99.90
56771;DHT22;42641;59.794;17.616;2024-03-08T06:06:22;-2.30;99.90
56771;DHT22;42641;59.794;17.616;2024-03-08T06:08:50;-2.30;99.90
56771;DHT22;42641;59.794;17.616;2024-03-08T06:11:18;-2.20;99.90
56771;DHT22;42641;59.794;17.616;2024-03-08T06:13:45;-2.20;99.90
56771;DHT22;42641;59.794;17.616;2024-03-08T06:16:12;-2.10;99.90
56771;DHT22;42641;59.794;17.616;2024-03-08T06:18:38;-2.10;99.90
56771;DHT22;42641;59.794;17.616;2024-03-08T06:21:08;-2.00;99.90
56771;DHT22;42641;59.794;17.616;2024-03-08T06:23:38;-1.90;99.90
56771;DHT22;42641;59.794;17.616;2024-03-08T06:26:05;-1.80;99.90
56771;DHT22;42641;59.794;17.616;2024-03-08T06:28:31;-1.80;99.90
56771;DHT22;42641;59.794;17.616;2024-03-08T06:31:01;-1.70;99.90
56771;DHT22;42641;59.794;17.616;2024-03-08T06:33:29;-1.60;99.90
56771;DHT22;42641;59.794;17.616;2024-03-08T06:35:55;-1.50;99.90
56771;DHT22;42641;59.794;17.616;2024-03-08T06:38:26;-1.40;99.90
56771;DHT22;42641;59.794;17.616;2024-03-08T06:40:53;-1.30;99.90
56771;DHT22;42641;59.794;17.616;2024-03-08T06:43:20;-1.10;99.90
56771;DHT22;42641;59.794;17.616;2024-03-08T06:45:47;-0.90;99.90
56771;DHT22;42641;59.794;17.616;2024-03-08T06:48:19;-0.80;99.90
56771;DHT22;42641;59.794;17.616;2024-03-08T06:50:47;-0.60;99.90
56771;DHT22;42641;59.794;17.616;2024-03-08T06:53:13;-0.50;99.90
56771;DHT22;42641;59.794;17.616;2024-03-08T06:55:40;-0.40;99.90
56771;DHT22;42641;59.794;17.616;2024-03-08T06:58:06;-0.30;99.90
56771;DHT22;42641;59.794;17.616;2024-03-08T07:00:33;-0.20;99.90
56771;DHT22;42641;59.794;17.616;2024-03-08T07:02:59;-0.10;99.90
56771;DHT22;42641;59.794;17.616;2024-03-08T07:05:29;0.00;99.90
56771;DHT22;42641;59.794;17.616;2024-03-08T07:07:56;0.10;99.90
56771;DHT22;42641;59.794;17.616;2024-03-08T07:10:22;0.20;99.90
56771;DHT22;42641;59.794;17.616;2024-03-08T07:12:53;0.30;99.90
56771;DHT22;42641;59.794;17.616;2024-03-08T07:15:19;0.40;99.90
56771;DHT22;42641;59.794;17.616;2024-03-08T07:17:46;0.50;99.90
56771;DHT22;42641;59.794;17.616;2024-03-08T07:20:16;0.70;99.90
56771;DHT22;42641;59.794;17.616;2024-03-08T07:22:45;0.70;99.90
56771;DHT22;42641;59.794;17.616;2024-03-08T07:25:18;0.80;99.90
56771;DHT22;42641;59.794;17.616;2024-03-08T07:27:48;0.90;99.90
56771;DHT22;42641;59.794;17.616;2024-03-08T07:30:14;1.00;99.90
56771;DHT22;42641;59.794;17.616;2024-03-08T07:32:59;1.10;99.90
56771;DHT22;42641;59.794;17.616;2024-03-08T07:35:28;1.20;99.90
56771;DHT22;42641;59.794;17.616;2024-03-08T07:37:55;1.30;99.90
56771;DHT22;42641;59.794;17.616;2024-03-08T07:40:22;1.40;99.90
56771;DHT22;42641;59.794;17.616;2024-03-08T07:42:49;1.50;99.90
56771;DHT22;42641;59.794;17.616;2024-03-08T07:45:17;1.50;99.90
56771;DHT22;42641;59.794;17.616;2024-03-08T07:47:43;1.60;99.90
56771;DHT22;42641;59.794;17.616;2024-03-08T07:50:10;1.70;99.90
56771;DHT22;42641;59.794;17.616;2024-03-08T07:52:36;1.80;99.90
56771;DHT22;42641;59.794;17.616;2024-03-08T07:55:05;1.80;99.90
56771;DHT22;42641;59.794;17.616;2024-03-08T07:57:32;1.90;99.90
56771;DHT22;42641;59.794;17.616;2024-03-08T08:00:00;2.00;99.90
56771;DHT22;42641;59.794;17.616;2024-03-08T08:02:27;2.10;99.90
56771;DHT22;42641;59.794;17.616;2024-03-08T08:04:53;2.20;99.90
56771;DHT22;42641;59.794;17.616;2024-03-08T08:07:20;2.30;99.90
56771;DHT22;42641;59.794;17.616;2024-03-08T08:09:48;2.30;99.90
56771;DHT22;42641;59.794;17.616;2024-03-08T08:12:15;2.40;99.90
56771;DHT22;42641;59.794;17.616;2024-03-08T08:14:42;2.40;99.90
56771;DHT22;42641;59.794;17.616;2024-03-08T08:17:08;2.50;99.90
56771;DHT22;42641;59.794;17.616;2024-03-08T08:19:35;2.60;99.90
56771;DHT22;42641;59.794;17.616;2024-03-08T08:22:02;2.80;99.90
56771;DHT22;42641;59.794;17.616;2024-03-08T08:24:29;2.80;99.90
56771;DHT22;42641;59.794;17.616;2024-03-08T08:26:56;2.80;99.90
56771;DHT22;42641;59.794;17.616;2024-03-08T08:29:22;2.90;99.90
56771;DHT22;42641;59.794;17.616;2024-03-08T08:31:49;3.00;99.90
56771;DHT22;42641;59.794;17.616;2024-03-08T08:34:16;3.00;99.90
56771;DHT22;42641;59.794;17.616;2024-03-08T08:36:45;3.00;99.90
56771;DHT22;42641;59.794;17.616;2024-03-08T08:39:12;3.10;99.90
56771;DHT22;42641;59.794;17.616;2024-03-08T08:41:42;3.10;99.90
56771;DHT22;42641;59.794;17.616;2024-03-08T08:44:09;3.30;99.90
56771;DHT22;42641;59.794;17.616;2024-03-08T08:46:36;3.30;99.90
56771;DHT22;42641;59.794;17.616;2024-03-08T08:49:06;3.40;99.90
56771;DHT22;42641;59.794;17.616;2024-03-08T08:51:37;3.40;99.90
56771;DHT22;42641;59.794;17.616;2024-03-08T08:54:03;3.50;99.90
56771;DHT22;42641;59.794;17.616;2024-03-08T08:56:30;3.60;99.90
56771;DHT22;42641;59.794;17.616;2024-03-08T08:58:56;3.60;99.90
56771;DHT22;42641;59.794;17.616;2024-03-08T09:01:23;3.60;99.90
56771;DHT22;42641;59.794;17.616;2024-03-08T09:03:50;3.80;99.90
56771;DHT22;42641;59.794;17.616;2024-03-08T09:06:16;3.90;99.90
56771;DHT22;42641;59.794;17.616;2024-03-08T09:08:44;3.90;99.90
56771;DHT22;42641;59.794;17.616;2024-03-08T09:11:12;4.00;99.90
56771;DHT22;42641;59.794;17.616;2024-03-08T09:13:38;4.00;99.90
56771;DHT22;42641;59.794;17.616;2024-03-08T09:16:05;4.10;99.90
56771;DHT22;42641;59.794;17.616;2024-03-08T09:18:32;4.10;99.90
56771;DHT22;42641;59.794;17.616;2024-03-08T09:21:00;4.20;99.90
56771;DHT22;42641;59.794;17.616;2024-03-08T09:23:27;4.30;99.90
56771;DHT22;42641;59.794;17.616;2024-03-08T09:25:57;4.50;99.90
56771;DHT22;42641;59.794;17.616;2024-03-08T09:28:24;4.60;99.90
56771;DHT22;42641;59.794;17.616;2024-03-08T09:30:51;4.60;99.90
56771;DHT22;42641;59.794;17.616;2024-03-08T09:33:17;4.60;99.90
56771;DHT22;42641;59.794;17.616;2024-03-08T09:35:46;4.80;99.90
56771;DHT22;42641;59.794;17.616;2024-03-08T09:38:13;4.80;99.90
56771;DHT22;42641;59.794;17.616;2024-03-08T09:40:43;4.90;99.90
56771;DHT22;42641;59.794;17.616;2024-03-08T09:43:12;4.90;99.90
56771;DHT22;42641;59.794;17.616;2024-03-08T09:45:40;5.00;99.90
56771;DHT22;42641;59.794;17.616;2024-03-08T09:48:11;4.90;99.90
56771;DHT22;42641;59.794;17.616;2024-03-08T09:50:40;5.00;99.90
56771;DHT22;42641;59.794;17.616;2024-03-08T09:53:11;5.10;99.90
56771;DHT22;42641;59.794;17.616;2024-03-08T09:55:38;5.10;99.90
56771;DHT22;42641;59.794;17.616;2024-03-08T09:58:10;5.20;99.90
56771;DHT22;42641;59.794;17.616;2024-03-08T10:01:03;5.30;99.90
56771;DHT22;42641;59.794;17.616;2024-03-08T10:03:30;5.20;99.90
56771;DHT22;42641;59.794;17.616;2024-03-08T10:06:01;5.20;99.90
56771;DHT22;42641;59.794;17.616;2024-03-08T10:08:30;5.20;99.90
56771;DHT22;42641;59.794;17.616;2024-03-08T10:10:57;5.20;99.90
56771;DHT22;42641;59.794;17.616;2024-03-08T10:13:26;5.20;99.90
56771;DHT22;42641;59.794;17.616;2024-03-08T10:15:56;5.20;99.90
56771;DHT22;42641;59.794;17.616;2024-03-08T10:18:22;5.30;99.90
56771;DHT22;42641;59.794;17.616;2024-03-08T10:21:06;5.20;99.90
56771;DHT22;42641;59.794;17.616;2024-03-08T10:23:33;5.20;99.90
56771;DHT22;42641;59.794;17.616;2024-03-08T10:26:13;5.20;99.90
56771;DHT22;42641;59.794;17.616;2024-03-08T10:28:51;5.30;99.90
56771;DHT22;42641;59.794;17.616;2024-03-08T10:31:20;5.30;99.90
56771;DHT22;42641;59.794;17.616;2024-03-08T10:33:48;5.30;99.90
56771;DHT22;42641;59.794;17.616;2024-03-08T10:36:15;5.40;99.90
56771;DHT22;42641;59.794;17.616;2024-03-08T10:38:43;5.50;99.90
56771;DHT22;42641;59.794;17.616;2024-03-08T10:41:13;5.40;99.90
56771;DHT22;42641;59.794;17.616;2024-03-08T10:44:16;5.50;99.90
56771;DHT22;42641;59.794;17.616;2024-03-08T10:47:22;5.60;99.90
56771;DHT22;42641;59.794;17.616;2024-03-08T10:52:34;5.70;99.90
56771;DHT22;42641;59.794;17.616;2024-03-08T10:55:03;5.80;99.90
56771;DHT22;42641;59.794;17.616;2024-03-08T10:57:35;5.90;99.90
56771;DHT22;42641;59.794;17.616;2024-03-08T11:00:05;5.80;99.90
56771;DHT22;42641;59.794;17.616;2024-03-08T11:02:35;5.80;99.90
56771;DHT22;42641;59.794;17.616;2024-03-08T11:05:04;5.90;99.90
56771;DHT22;42641;59.794;17.616;2024-03-08T11:07:34;5.90;99.90
56771;DHT22;42641;59.794;17.616;2024-03-08T11:10:04;6.00;99.90
56771;DHT22;42641;59.794;17.616;2024-03-08T11:12:36;6.10;99.90
56771;DHT22;42641;59.794;17.616;2024-03-08T11:15:11;6.20;99.90
56771;DHT22;42641;59.794;17.616;2024-03-08T11:20:12;6.20;99.90
56771;DHT22;42641;59.794;17.616;2024-03-08T11:22:48;6.20;99.90
56771;DHT22;42641;59.794;17.616;2024-03-08T11:25:42;6.30;99.90
56771;DHT22;42641;59.794;17.616;2024-03-08T11:28:19;6.60;99.90
56771;DHT22;42641;59.794;17.616;2024-03-08T11:33:35;7.50;99.90
56771;DHT22;42641;59.794;17.616;2024-03-08T11:36:12;7.60;99.90
56771;DHT22;42641;59.794;17.616;2024-03-08T11:38:43;8.30;99.90
56771;DHT22;42641;59.794;17.616;2024-03-08T11:41:10;9.10;99.90
56771;DHT22;42641;59.794;17.616;2024-03-08T11:43:40;9.20;99.90
56771;DHT22;42641;59.794;17.616;2024-03-08T11:46:11;9.20;99.90
56771;DHT22;42641;59.794;17.616;2024-03-08T11:48:41;9.30;99.90
56771;DHT22;42641;59.794;17.616;2024-03-08T11:51:13;9.30;99.90
56771;DHT22;42641;59.794;17.616;2024-03-08T11:53:41;9.20;99.90
56771;DHT22;42641;59.794;17.616;2024-03-08T11:56:09;8.90;99.90
56771;DHT22;42641;59.794;17.616;2024-03-08T11:58:35;8.40;99.90
56771;DHT22;42641;59.794;17.616;2024-03-08T12:01:05;7.70;99.90
56771;DHT22;42641;59.794;17.616;2024-03-08T12:03:33;7.80;99.90
56771;DHT22;42641;59.794;17.616;2024-03-08T12:06:04;8.20;99.90
56771;DHT22;42641;59.794;17.616;2024-03-08T12:08:31;8.70;99.90
56771;DHT22;42641;59.794;17.616;2024-03-08T12:10:58;9.70;99.90
56771;DHT22;42641;59.794;17.616;2024-03-08T12:13:28;9.80;99.90
56771;DHT22;42641;59.794;17.616;2024-03-08T12:15:57;9.30;99.90
56771;DHT22;42641;59.794;17.616;2024-03-08T12:18:25;9.30;99.90
56771;DHT22;42641;59.794;17.616;2024-03-08T12:21:07;9.60;99.90
56771;DHT22;42641;59.794;17.616;2024-03-08T12:23:35;9.40;99.90
56771;DHT22;42641;59.794;17.616;2024-03-08T12:26:17;9.00;99.90
56771;DHT22;42641;59.794;17.616;2024-03-08T12:28:45;8.70;99.90
56771;DHT22;42641;59.794;17.616;2024-03-08T12:31:12;8.80;99.90
56771;DHT22;42641;59.794;17.616;2024-03-08T12:33:54;8.80;99.90
56771;DHT22;42641;59.794;17.616;2024-03-08T12:36:22;8.70;99.90
56771;DHT22;42641;59.794;17.616;2024-03-08T12:38:49;8.50;99.90
56771;DHT22;42641;59.794;17.616;2024-03-08T12:41:19;8.10;99.90
56771;DHT22;42641;59.794;17.616;2024-03-08T12:43:47;7.40;99.90
56771;DHT22;42641;59.794;17.616;2024-03-08T12:46:20;7.10;99.90
56771;DHT22;42641;59.794;17.616;2024-03-08T12:48:47;6.90;99.90
56771;DHT22;42641;59.794;17.616;2024-03-08T12:51:15;6.60;99.90
56771;DHT22;42641;59.794;17.616;2024-03-08T12:53:42;6.30;99.90
56771;DHT22;42641;59.794;17.616;2024-03-08T12:56:29;6.40;99.90
56771;DHT22;42641;59.794;17.616;2024-03-08T12:58:55;6.30;99.90
56771;DHT22;42641;59.794;17.616;2024-03-08T13:01:22;6.20;99.90
56771;DHT22;42641;59.794;17.616;2024-03-08T13:03:49;6.10;99.90
56771;DHT22;42641;59.794;17.616;2024-03-08T13:06:19;6.10;99.90
56771;DHT22;42641;59.794;17.616;2024-03-08T13:08:47;6.40;99.90
56771;DHT22;42641;59.794;17.616;2024-03-08T13:11:14;6.90;99.90
56771;DHT22;42641;59.794;17.616;2024-03-08T13:13:41;7.10;99.90
56771;DHT22;42641;59.794;17.616;2024-03-08T13:16:08;7.10;99.90
56771;DHT22;42641;59.794;17.616;2024-03-08T13:18:38;6.80;99.90
56771;DHT22;42641;59.794;17.616;2024-03-08T13:21:04;6.50;99.90
56771;DHT22;42641;59.794;17.616;2024-03-08T13:23:34;5.90;99.90
56771;DHT22;42641;59.794;17.616;2024-03-08T13:26:09;5.20;99.90
56771;DHT22;42641;59.794;17.616;2024-03-08T13:28:38;4.80;99.90
56771;DHT22;42641;59.794;17.616;2024-03-08T13:31:05;4.50;99.90
56771;DHT22;42641;59.794;17.616;2024-03-08T13:33:37;4.10;99.90
56771;DHT22;42641;59.794;17.616;2024-03-08T13:36:11;3.80;99.90
56771;DHT22;42641;59.794;17.616;2024-03-08T13:38:46;3.70;99.90
56771;DHT22;42641;59.794;17.616;2024-03-08T13:41:14;3.50;99.90
56771;DHT22;42641;59.794;17.616;2024-03-08T13:43:43;3.40;99.90
56771;DHT22;42641;59.794;17.616;2024-03-08T13:46:11;3.10;99.90
56771;DHT22;42641;59.794;17.616;2024-03-08T13:48:38;3.20;99.90
56771;DHT22;42641;59.794;17.616;2024-03-08T13:51:05;3.10;99.90
56771;DHT22;42641;59.794;17.616;2024-03-08T13:53:36;2.80;99.90
56771;DHT22;42641;59.794;17.616;2024-03-08T13:56:03;2.70;99.90
56771;DHT22;42641;59.794;17.616;2024-03-08T13:58:29;2.50;99.90
56771;DHT22;42641;59.794;17.616;2024-03-08T14:00:56;2.50;99.90
56771;DHT22;42641;59.794;17.616;2024-03-08T14:03:22;2.50;99.90
56771;DHT22;42641;59.794;17.616;2024-03-08T14:05:50;2.50;99.90
56771;DHT22;42641;59.794;17.616;2024-03-08T14:08:17;2.50;99.90
56771;DHT22;42641;59.794;17.616;2024-03-08T14:10:43;2.50;99.90
56771;DHT22;42641;59.794;17.616;2024-03-08T14:13:13;2.40;99.90
56771;DHT22;42641;59.794;17.616;2024-03-08T14:15:42;2.40;99.90
56771;DHT22;42641;59.794;17.616;2024-03-08T14:18:08;2.20;99.90
56771;DHT22;42641;59.794;17.616;2024-03-08T14:20:34;2.30;99.90
56771;DHT22;42641;59.794;17.616;2024-03-08T14:23:01;2.20;99.90
56771;DHT22;42641;59.794;17.616;2024-03-08T14:25:27;2.20;99.90
56771;DHT22;42641;59.794;17.616;2024-03-08T14:27:56;2.00;99.90
56771;DHT22;42641;59.794;17.616;2024-03-08T14:30:28;2.00;99.90
56771;DHT22;42641;59.794;17.616;2024-03-08T14:33:02;2.00;99.90
56771;DHT22;42641;59.794;17.616;2024-03-08T14:35:28;2.00;99.90
56771;DHT22;42641;59.794;17.616;2024-03-08T14:37:56;2.00;99.90
56771;DHT22;42641;59.794;17.616;2024-03-08T14:40:26;1.90;99.90
56771;DHT22;42641;59.794;17.616;2024-03-08T14:42:53;1.90;99.90
56771;DHT22;42641;59.794;17.616;2024-03-08T14:45:19;1.90;99.90
56771;DHT22;42641;59.794;17.616;2024-03-08T14:47:47;1.90;99.90
56771;DHT22;42641;59.794;17.616;2024-03-08T14:50:20;1.90;99.90
56771;DHT22;42641;59.794;17.616;2024-03-08T14:52:48;1.90;99.90
56771;DHT22;42641;59.794;17.616;2024-03-08T14:55:19;2.00;99.90
56771;DHT22;42641;59.794;17.616;2024-03-08T14:57:49;2.10;99.90
56771;DHT22;42641;59.794;17.616;2024-03-08T15:00:18;2.20;99.90
56771;DHT22;42641;59.794;17.616;2024-03-08T15:03:00;2.20;99.90
56771;DHT22;42641;59.794;17.616;2024-03-08T15:05:28;2.20;99.90
56771;DHT22;42641;59.794;17.616;2024-03-08T15:07:58;2.10;99.90
56771;DHT22;42641;59.794;17.616;2024-03-08T15:10:35;2.00;99.90
56771;DHT22;42641;59.794;17.616;2024-03-08T15:13:02;2.00;99.90
56771;DHT22;42641;59.794;17.616;2024-03-08T15:15:41;2.00;99.90
56771;DHT22;42641;59.794;17.616;2024-03-08T15:18:09;1.90;99.90
56771;DHT22;42641;59.794;17.616;2024-03-08T15:20:37;2.00;99.90
56771;DHT22;42641;59.794;17.616;2024-03-08T15:23:03;1.90;99.90
56771;DHT22;42641;59.794;17.616;2024-03-08T15:25:30;1.90;99.90
56771;DHT22;42641;59.794;17.616;2024-03-08T15:27:57;1.90;99.90
56771;DHT22;42641;59.794;17.616;2024-03-08T15:30:24;1.90;99.90
56771;DHT22;42641;59.794;17.616;2024-03-08T15:32:55;2.00;99.90
56771;DHT22;42641;59.794;17.616;2024-03-08T15:35:26;2.00;99.90
56771;DHT22;42641;59.794;17.616;2024-03-08T15:37:53;2.00;99.90
56771;DHT22;42641;59.794;17.616;2024-03-08T15:40:23;2.00;99.90
56771;DHT22;42641;59.794;17.616;2024-03-08T15:42:57;1.90;99.90